sensor_id;sensor_type;location;lat;lon;timestamp;pressure;altitude;pressure_sealevel;temperature;humidity
19789;BME280;10054;59.332;18.244;2023-03-01T00:01:49;102158.87;;;2.58;96.63
19789;BME280;10054;59.332;18.244;2023-03-01T00:04:18;102158.03;;;2.54;96.37
19789;BME280;10054;59.332;18.244;2023-03-01T00:06:46;102151.98;;;2.48;96.69
19789;BME280;10054;59.332;18.244;2023-03-01T00:09:16;102156.77;;;2.44;97.36
19789;BME280;10054;59.332;18.244;2023-03-01T00:11:45;102155.48;;;2.41;98.11
19789;BME280;10054;59.332;18.244;2023-03-01T00:14:14;102149.87;;;2.34;97.75
19789;BME280;10054;59.332;18.244;2023-03-01T00:16:45;102151.20;;;2.26;97.92
19789;BME280;10054;59.332;18.244;2023-03-01T00:19:16;102155.59;;;2.21;98.46
19789;BME280;10054;59.332;18.244;2023-03-01T00:21:46;102156.03;;;2.19;98.94
19789;BME280;10054;59.332;18.244;2023-03-01T00:24:15;102160.82;;;2.13;98.68
19789;BME280;10054;59.332;18.244;2023-03-01T00:26:44;102163.02;;;2.05;98.86
19789;BME280;10054;59.332;18.244;2023-03-01T00:29:14;102167.81;;;1.96;99.41
19789;BME280;10054;59.332;18.244;2023-03-01T00:31:42;102160.89;;;1.87;99.79
19789;BME280;10054;59.332;18.244;2023-03-01T00:34:11;102161.77;;;1.79;100.00
19789;BME280;10054;59.332;18.244;2023-03-01T00:36:39;102156.58;;;1.70;100.00
19789;BME280;10054;59.332;18.244;2023-03-01T00:39:11;102162.22;;;1.63;100.00
19789;BME280;10054;59.332;18.244;2023-03-01T00:41:40;102161.79;;;1.59;100.00
19789;BME280;10054;59.332;18.244;2023-03-01T00:44:09;102163.53;;;1.57;100.00
19789;BME280;10054;59.332;18.244;2023-03-01T00:46:38;102166.13;;;1.54;100.00
19789;BME280;10054;59.332;18.244;2023-03-01T00:49:07;102165.27;;;1.49;100.00
19789;BME280;10054;59.332;18.244;2023-03-01T00:51:35;102157.50;;;1.46;100.00
19789;BME280;10054;59.332;18.244;2023-03-01T00:54:04;102167.03;;;1.45;100.00
19789;BME280;10054;59.332;18.244;2023-03-01T00:56:33;102160.53;;;1.42;100.00
19789;BME280;10054;59.332;18.244;2023-03-01T00:59:01;102156.63;;;1.41;100.00
19789;BME280;10054;59.332;18.244;2023-03-01T01:01:31;102150.12;;;1.39;100.00
19789;BME280;10054;59.332;18.244;2023-03-01T01:04:03;102151.00;;;1.40;100.00
19789;BME280;10054;59.332;18.244;2023-03-01T01:06:34;102143.62;;;1.38;100.00
19789;BME280;10054;59.332;18.244;2023-03-01T01:09:04;102147.09;;;1.34;100.00
19789;BME280;10054;59.332;18.244;2023-03-01T01:11:34;102146.23;;;1.27;100.00
19789;BME280;10054;59.332;18.244;2023-03-01T01:14:03;102144.93;;;1.28;100.00
19789;BME280;10054;59.332;18.244;2023-03-01T01:16:32;102143.62;;;1.28;100.00
19789;BME280;10054;59.332;18.244;2023-03-01T01:19:01;102144.93;;;1.27;100.00
19789;BME280;10054;59.332;18.244;2023-03-01T01:21:30;102144.49;;;1.21;100.00
19789;BME280;10054;59.332;18.244;2023-03-01T01:23:59;102144.49;;;1.18;100.00
19789;BME280;10054;59.332;18.244;2023-03-01T01:26:30;102147.09;;;1.17;100.00
19789;BME280;10054;59.332;18.244;2023-03-01T01:29:00;102145.80;;;1.15;100.00
19789;BME280;10054;59.332;18.244;2023-03-01T01:31:31;102147.95;;;1.11;100.00
19789;BME280;10054;59.332;18.244;2023-03-01T01:34:01;102143.62;;;1.09;100.00
19789;BME280;10054;59.332;18.244;2023-03-01T01:36:30;102138.85;;;1.08;100.00
19789;BME280;10054;59.332;18.244;2023-03-01T01:38:59;102141.87;;;1.03;100.00
19789;BME280;10054;59.332;18.244;2023-03-01T01:41:29;102140.58;;;0.98;100.00
19789;BME280;10054;59.332;18.244;2023-03-01T01:44:14;102137.97;;;0.97;100.00
19789;BME280;10054;59.332;18.244;2023-03-01T01:46:54;102141.00;;;0.98;100.00
19789;BME280;10054;59.332;18.244;2023-03-01T01:49:29;102139.70;;;0.99;100.00
19789;BME280;10054;59.332;18.244;2023-03-01T01:55:08;102137.11;;;0.99;100.00
19789;BME280;10054;59.332;18.244;2023-03-01T01:57:45;102133.64;;;0.97;100.00
19789;BME280;10054;59.332;18.244;2023-03-01T02:00:12;102131.48;;;0.97;100.00
19789;BME280;10054;59.332;18.244;2023-03-01T02:02:42;102134.08;;;0.95;100.00
19789;BME280;10054;59.332;18.244;2023-03-01T02:05:22;102132.77;;;0.95;100.00
19789;BME280;10054;59.332;18.244;2023-03-01T02:07:49;102140.12;;;0.90;100.00
19789;BME280;10054;59.332;18.244;2023-03-01T02:10:21;102135.80;;;0.87;100.00
19789;BME280;10054;59.332;18.244;2023-03-01T02:12:51;102139.25;;;0.85;100.00
19789;BME280;10054;59.332;18.244;2023-03-01T02:15:22;102138.38;;;0.83;100.00
19789;BME280;10054;59.332;18.244;2023-03-01T02:17:51;102134.48;;;0.83;100.00
19789;BME280;10054;59.332;18.244;2023-03-01T02:20:35;102138.38;;;0.83;100.00
19789;BME280;10054;59.332;18.244;2023-03-01T02:23:04;102124.09;;;0.83;100.00
19789;BME280;10054;59.332;18.244;2023-03-01T02:30:48;102107.64;;;0.82;100.00
19789;BME280;10054;59.332;18.244;2023-03-01T02:33:36;102111.98;;;0.83;100.00
19789;BME280;10054;59.332;18.244;2023-03-01T02:36:14;102105.91;;;0.83;100.00
19789;BME280;10054;59.332;18.244;2023-03-01T02:38:39;102103.75;;;0.85;100.00
19789;BME280;10054;59.332;18.244;2023-03-01T02:41:10;102107.65;;;0.87;100.00
19789;BME280;10054;59.332;18.244;2023-03-01T02:43:39;102114.14;;;0.88;100.00
19789;BME280;10054;59.332;18.244;2023-03-01T02:46:20;102104.62;;;0.87;100.00
19789;BME280;10054;59.332;18.244;2023-03-01T02:48:49;102102.02;;;0.87;100.00
19789;BME280;10054;59.332;18.244;2023-03-01T02:54:34;102103.75;;;0.90;100.00
19789;BME280;10054;59.332;18.244;2023-03-01T02:56:59;102112.84;;;0.88;100.00
19789;BME280;10054;59.332;18.244;2023-03-01T02:59:32;102107.21;;;0.83;100.00
19789;BME280;10054;59.332;18.244;2023-03-01T03:02:03;102101.15;;;0.82;100.00
19789;BME280;10054;59.332;18.244;2023-03-01T03:04:32;102098.11;;;0.81;100.00
19789;BME280;10054;59.332;18.244;2023-03-01T03:07:00;102107.20;;;0.80;100.00
19789;BME280;10054;59.332;18.244;2023-03-01T03:09:29;102098.55;;;0.78;100.00
19789;BME280;10054;59.332;18.244;2023-03-01T03:11:57;102107.63;;;0.76;100.00
19789;BME280;10054;59.332;18.244;2023-03-01T03:14:26;102105.03;;;0.75;100.00
19789;BME280;10054;59.332;18.244;2023-03-01T03:16:55;102106.36;;;0.72;100.00
19789;BME280;10054;59.332;18.244;2023-03-01T03:19:24;102108.52;;;0.71;100.00
19789;BME280;10054;59.332;18.244;2023-03-01T03:21:52;102110.25;;;0.72;100.00
19789;BME280;10054;59.332;18.244;2023-03-01T03:24:22;102108.96;;;0.73;100.00
19789;BME280;10054;59.332;18.244;2023-03-01T03:26:51;102100.73;;;0.71;100.00
19789;BME280;10054;59.332;18.244;2023-03-01T03:29:19;102105.48;;;0.68;100.00
19789;BME280;10054;59.332;18.244;2023-03-01T03:31:48;102107.64;;;0.65;100.00
19789;BME280;10054;59.332;18.244;2023-03-01T03:34:16;102105.91;;;0.64;100.00
19789;BME280;10054;59.332;18.244;2023-03-01T03:36:45;102108.08;;;0.65;100.00
19789;BME280;10054;59.332;18.244;2023-03-01T03:39:14;102098.13;;;0.68;100.00
19789;BME280;10054;59.332;18.244;2023-03-01T03:41:42;102098.13;;;0.66;100.00
19789;BME280;10054;59.332;18.244;2023-03-01T03:44:11;102093.36;;;0.65;100.00
19789;BME280;10054;59.332;18.244;2023-03-01T03:46:39;102086.88;;;0.65;100.00
19789;BME280;10054;59.332;18.244;2023-03-01T03:49:08;102095.96;;;0.67;100.00
19789;BME280;10054;59.332;18.244;2023-03-01T03:51:36;102095.95;;;0.65;100.00
19789;BME280;10054;59.332;18.244;2023-03-01T03:54:05;102091.19;;;0.63;100.00
19789;BME280;10054;59.332;18.244;2023-03-01T03:56:34;102089.89;;;0.60;100.00
19789;BME280;10054;59.332;18.244;2023-03-01T03:59:02;102087.28;;;0.56;100.00
19789;BME280;10054;59.332;18.244;2023-03-01T04:01:31;102078.63;;;0.54;100.00
19789;BME280;10054;59.332;18.244;2023-03-01T04:03:59;102069.95;;;0.50;100.00
19789;BME280;10054;59.332;18.244;2023-03-01T04:06:29;102068.66;;;0.49;100.00
19789;BME280;10054;59.332;18.244;2023-03-01T04:08:58;102083.37;;;0.47;100.00
19789;BME280;10054;59.332;18.244;2023-03-01T04:11:28;102073.41;;;0.45;100.00
19789;BME280;10054;59.332;18.244;2023-03-01T04:13:58;102073.84;;;0.43;100.00
19789;BME280;10054;59.332;18.244;2023-03-01T04:16:27;102080.33;;;0.41;100.00
19789;BME280;10054;59.332;18.244;2023-03-01T04:18:56;102069.93;;;0.38;100.00
19789;BME280;10054;59.332;18.244;2023-03-01T04:21:26;102072.53;;;0.38;100.00
19789;BME280;10054;59.332;18.244;2023-03-01T04:23:55;102073.82;;;0.37;100.00
19789;BME280;10054;59.332;18.244;2023-03-01T04:26:25;102069.49;;;0.36;100.00
19789;BME280;10054;59.332;18.244;2023-03-01T04:28:54;102079.44;;;0.35;100.00
19789;BME280;10054;59.332;18.244;2023-03-01T04:31:23;102079.00;;;0.32;100.00
19789;BME280;10054;59.332;18.244;2023-03-01T04:33:54;102083.75;;;0.29;100.00
19789;BME280;10054;59.332;18.244;2023-03-01T04:36:26;102086.77;;;0.27;100.00
19789;BME280;10054;59.332;18.244;2023-03-01T04:38:56;102084.60;;;0.25;100.00
19789;BME280;10054;59.332;18.244;2023-03-01T04:41:25;102087.20;;;0.27;100.00
19789;BME280;10054;59.332;18.244;2023-03-01T04:43:54;102082.45;;;0.28;100.00
19789;BME280;10054;59.332;18.244;2023-03-01T04:46:22;102085.47;;;0.27;100.00
19789;BME280;10054;59.332;18.244;2023-03-01T04:48:52;102085.47;;;0.27;100.00
19789;BME280;10054;59.332;18.244;2023-03-01T04:51:21;102085.91;;;0.27;100.00
19789;BME280;10054;59.332;18.244;2023-03-01T04:53:50;102082.88;;;0.26;100.00
19789;BME280;10054;59.332;18.244;2023-03-01T04:56:19;102080.70;;;0.25;100.00
19789;BME280;10054;59.332;18.244;2023-03-01T04:58:47;102072.95;;;0.33;100.00
19789;BME280;10054;59.332;18.244;2023-03-01T05:01:18;102070.80;;;0.42;100.00
19789;BME280;10054;59.332;18.244;2023-03-01T05:03:50;102079.02;;;0.38;100.00
19789;BME280;10054;59.332;18.244;2023-03-01T05:06:20;102089.38;;;0.30;100.00
19789;BME280;10054;59.332;18.244;2023-03-01T05:08:49;102079.41;;;0.24;100.00
19789;BME280;10054;59.332;18.244;2023-03-01T05:11:18;102082.84;;;0.18;100.00
19789;BME280;10054;59.332;18.244;2023-03-01T05:13:46;102083.69;;;0.13;100.00
19789;BME280;10054;59.332;18.244;2023-03-01T05:16:17;102079.78;;;0.08;100.00
19789;BME280;10054;59.332;18.244;2023-03-01T05:18:46;102078.03;;;0.03;100.00
19789;BME280;10054;59.332;18.244;2023-03-01T05:21:17;102073.27;;;0.00;100.00
19789;BME280;10054;59.332;18.244;2023-03-01T05:23:45;102078.91;;;-0.02;100.00
19789;BME280;10054;59.332;18.244;2023-03-01T05:26:15;102080.20;;;-0.03;100.00
19789;BME280;10054;59.332;18.244;2023-03-01T05:28:44;102074.14;;;-0.04;100.00
19789;BME280;10054;59.332;18.244;2023-03-01T05:31:13;102067.23;;;-0.03;100.00
19789;BME280;10054;59.332;18.244;2023-03-01T05:33:42;102062.90;;;-0.04;100.00
19789;BME280;10054;59.332;18.244;2023-03-01T05:36:11;102065.05;;;-0.05;100.00
19789;BME280;10054;59.332;18.244;2023-03-01T05:38:41;102068.08;;;-0.06;100.00
19789;BME280;10054;59.332;18.244;2023-03-01T05:41:14;102073.70;;;-0.06;100.00
19789;BME280;10054;59.332;18.244;2023-03-01T05:43:44;102070.67;;;-0.06;100.00
19789;BME280;10054;59.332;18.244;2023-03-01T05:46:12;102075.00;;;-0.05;100.00
19789;BME280;10054;59.332;18.244;2023-03-01T05:48:42;102078.03;;;-0.04;100.00
19789;BME280;10054;59.332;18.244;2023-03-01T05:51:11;102075.00;;;-0.05;100.00
19789;BME280;10054;59.332;18.244;2023-03-01T05:53:39;102073.27;;;-0.06;100.00
19789;BME280;10054;59.332;18.244;2023-03-01T05:56:08;102071.97;;;-0.06;100.00
19789;BME280;10054;59.332;18.244;2023-03-01T05:58:36;102077.16;;;-0.04;100.00
19789;BME280;10054;59.332;18.244;2023-03-01T06:01:10;102072.41;;;-0.03;100.00
19789;BME280;10054;59.332;18.244;2023-03-01T06:03:35;102076.73;;;-0.02;100.00
19789;BME280;10054;59.332;18.244;2023-03-01T06:06:04;102074.15;;;-0.02;100.00
19789;BME280;10054;59.332;18.244;2023-03-01T06:08:33;102078.45;;;0.00;100.00
19789;BME280;10054;59.332;18.244;2023-03-01T06:11:01;102073.72;;;0.08;100.00
19789;BME280;10054;59.332;18.244;2023-03-01T06:13:30;102075.07;;;0.21;100.00
19789;BME280;10054;59.332;18.244;2023-03-01T06:15:58;102067.28;;;0.20;100.00
19789;BME280;10054;59.332;18.244;2023-03-01T06:18:27;102074.18;;;0.15;100.00
19789;BME280;10054;59.332;18.244;2023-03-01T06:20:56;102070.69;;;0.07;100.00
19789;BME280;10054;59.332;18.244;2023-03-01T06:23:25;102074.14;;;0.04;100.00
19789;BME280;10054;59.332;18.244;2023-03-01T06:25:53;102063.34;;;0.00;100.00
19789;BME280;10054;59.332;18.244;2023-03-01T06:28:22;102066.80;;;-0.01;100.00
19789;BME280;10054;59.332;18.244;2023-03-01T06:30:51;102068.97;;;-0.01;100.00
19789;BME280;10054;59.332;18.244;2023-03-01T06:33:20;102076.31;;;0.00;100.00
19789;BME280;10054;59.332;18.244;2023-03-01T06:35:51;102084.50;;;0.01;100.00
19789;BME280;10054;59.332;18.244;2023-03-01T06:38:19;102083.20;;;0.01;100.00
19789;BME280;10054;59.332;18.244;2023-03-01T06:40:53;102078.03;;;0.03;100.00
19789;BME280;10054;59.332;18.244;2023-03-01T06:43:22;102072.84;;;0.04;100.00
19789;BME280;10054;59.332;18.244;2023-03-01T06:45:51;102072.00;;;0.08;100.00
19789;BME280;10054;59.332;18.244;2023-03-01T06:48:19;102075.90;;;0.11;100.00
19789;BME280;10054;59.332;18.244;2023-03-01T06:50:48;102076.78;;;0.15;100.00
19789;BME280;10054;59.332;18.244;2023-03-01T06:53:17;102076.36;;;0.18;100.00
19789;BME280;10054;59.332;18.244;2023-03-01T06:55:45;102085.45;;;0.23;100.00
19789;BME280;10054;59.332;18.244;2023-03-01T06:58:14;102093.27;;;0.30;100.00
19789;BME280;10054;59.332;18.244;2023-03-01T07:00:42;102103.23;;;0.34;100.00
19789;BME280;10054;59.332;18.244;2023-03-01T07:03:11;102088.10;;;0.38;100.00
19789;BME280;10054;59.332;18.244;2023-03-01T07:05:40;102082.48;;;0.42;100.00
19789;BME280;10054;59.332;18.244;2023-03-01T07:08:08;102076.88;;;0.45;100.00
19789;BME280;10054;59.332;18.244;2023-03-01T07:10:37;102074.29;;;0.51;100.00
19789;BME280;10054;59.332;18.244;2023-03-01T07:13:05;102076.90;;;0.57;100.00
19789;BME280;10054;59.332;18.244;2023-03-01T07:15:34;102079.52;;;0.67;100.00
19789;BME280;10054;59.332;18.244;2023-03-01T07:18:03;102086.43;;;0.84;100.00
19789;BME280;10054;59.332;18.244;2023-03-01T07:20:31;102086.88;;;0.94;100.00
19789;BME280;10054;59.332;18.244;2023-03-01T07:23:00;102080.38;;;0.97;100.00
19789;BME280;10054;59.332;18.244;2023-03-01T07:25:34;102078.65;;;0.99;100.00
19789;BME280;10054;59.332;18.244;2023-03-01T07:28:02;102078.65;;;1.04;100.00
19789;BME280;10054;59.332;18.244;2023-03-01T07:30:31;102069.98;;;1.08;100.00
19789;BME280;10054;59.332;18.244;2023-03-01T07:33:00;102078.65;;;1.16;100.00
19789;BME280;10054;59.332;18.244;2023-03-01T07:35:29;102075.18;;;1.22;100.00
19789;BME280;10054;59.332;18.244;2023-03-01T07:37:57;102076.91;;;1.27;100.00
19789;BME280;10054;59.332;18.244;2023-03-01T07:40:26;102074.73;;;1.33;100.00
19789;BME280;10054;59.332;18.244;2023-03-01T07:42:58;102076.03;;;1.38;100.00
19789;BME280;10054;59.332;18.244;2023-03-01T07:45:28;102071.69;;;1.41;100.00
19789;BME280;10054;59.332;18.244;2023-03-01T07:47:58;102069.95;;;1.45;100.00
19789;BME280;10054;59.332;18.244;2023-03-01T07:50:27;102069.08;;;1.47;100.00
19789;BME280;10054;59.332;18.244;2023-03-01T07:52:56;102067.30;;;1.51;100.00
19789;BME280;10054;59.332;18.244;2023-03-01T07:55:24;102069.03;;;1.55;100.00
19789;BME280;10054;59.332;18.244;2023-03-01T07:57:53;102073.79;;;1.60;100.00
19789;BME280;10054;59.332;18.244;2023-03-01T08:00:22;102065.53;;;1.68;100.00
19789;BME280;10054;59.332;18.244;2023-03-01T08:02:51;102067.24;;;1.77;100.00
19789;BME280;10054;59.332;18.244;2023-03-01T08:05:20;102062.89;;;1.80;100.00
19789;BME280;10054;59.332;18.244;2023-03-01T08:07:49;102063.31;;;1.86;100.00
19789;BME280;10054;59.332;18.244;2023-03-01T08:10:18;102058.50;;;1.96;100.00
19789;BME280;10054;59.332;18.244;2023-03-01T08:12:47;102057.61;;;2.02;100.00
19789;BME280;10054;59.332;18.244;2023-03-01T08:15:16;102058.45;;;2.07;100.00
19789;BME280;10054;59.332;18.244;2023-03-01T08:17:48;102048.03;;;2.10;100.00
19789;BME280;10054;59.332;18.244;2023-03-01T08:20:16;102053.63;;;2.18;100.00
19789;BME280;10054;59.332;18.244;2023-03-01T08:22:45;102054.86;;;2.26;100.00
19789;BME280;10054;59.332;18.244;2023-03-01T08:25:14;102057.88;;;2.30;100.00
19789;BME280;10054;59.332;18.244;2023-03-01T08:27:43;102055.26;;;2.33;100.00
19789;BME280;10054;59.332;18.244;2023-03-01T08:30:12;102054.78;;;2.40;100.00
19789;BME280;10054;59.332;18.244;2023-03-01T08:32:41;102062.12;;;2.46;100.00
19789;BME280;10054;59.332;18.244;2023-03-01T08:35:10;102062.55;;;2.49;100.00
19789;BME280;10054;59.332;18.244;2023-03-01T08:37:38;102067.72;;;2.55;100.00
19789;BME280;10054;59.332;18.244;2023-03-01T08:40:08;102063.77;;;2.62;100.00
19789;BME280;10054;59.332;18.244;2023-03-01T08:42:37;102065.89;;;2.69;100.00
19789;BME280;10054;59.332;18.244;2023-03-01T08:45:07;102066.28;;;2.75;100.00
19789;BME280;10054;59.332;18.244;2023-03-01T08:47:36;102068.84;;;2.81;100.00
19789;BME280;10054;59.332;18.244;2023-03-01T08:50:06;102062.27;;;2.88;100.00
19789;BME280;10054;59.332;18.244;2023-03-01T08:52:35;102058.31;;;2.94;100.00
19789;BME280;10054;59.332;18.244;2023-03-01T08:55:04;102050.05;;;2.96;99.89
19789;BME280;10054;59.332;18.244;2023-03-01T08:57:33;102055.61;;;3.02;100.00
19789;BME280;10054;59.332;18.244;2023-03-01T09:00:02;102043.82;;;3.10;100.00
19789;BME280;10054;59.332;18.244;2023-03-01T09:02:32;102046.75;;;3.21;99.56
19789;BME280;10054;59.332;18.244;2023-03-01T09:05:01;102043.66;;;3.26;98.79
19789;BME280;10054;59.332;18.244;2023-03-01T09:07:30;102037.05;;;3.36;99.34
19789;BME280;10054;59.332;18.244;2023-03-01T09:10:01;102038.70;;;3.44;99.44
19789;BME280;10054;59.332;18.244;2023-03-01T09:12:29;102038.64;;;3.50;97.91
19789;BME280;10054;59.332;18.244;2023-03-01T09:14:58;102034.22;;;3.57;97.56
19789;BME280;10054;59.332;18.244;2023-03-01T09:17:27;102032.84;;;3.63;97.49
19789;BME280;10054;59.332;18.244;2023-03-01T09:19:55;102033.64;;;3.70;97.13
19789;BME280;10054;59.332;18.244;2023-03-01T09:22:24;102021.81;;;3.74;97.04
19789;BME280;10054;59.332;18.244;2023-03-01T09:24:54;102022.12;;;3.84;96.59
19789;BME280;10054;59.332;18.244;2023-03-01T09:27:24;102020.30;;;3.91;96.47
19789;BME280;10054;59.332;18.244;2023-03-01T09:29:52;102020.25;;;3.95;95.33
19789;BME280;10054;59.332;18.244;2023-03-01T09:32:23;102014.10;;;4.00;94.97
19789;BME280;10054;59.332;18.244;2023-03-01T09:34:52;102021.41;;;4.06;94.95
19789;BME280;10054;59.332;18.244;2023-03-01T09:37:33;102008.28;;;4.12;93.72
19789;BME280;10054;59.332;18.244;2023-03-01T09:40:04;102007.80;;;4.16;93.62
19789;BME280;10054;59.332;18.244;2023-03-01T09:42:35;102007.70;;;4.22;94.32
19789;BME280;10054;59.332;18.244;2023-03-01T09:45:06;101996.24;;;4.32;94.23
19789;BME280;10054;59.332;18.244;2023-03-01T09:47:36;101997.46;;;4.38;93.30
19789;BME280;10054;59.332;18.244;2023-03-01T09:55:30;101991.26;;;4.45;92.90
19789;BME280;10054;59.332;18.244;2023-03-01T09:57:58;101986.81;;;4.49;91.74
19789;BME280;10054;59.332;18.244;2023-03-01T10:00:41;101985.02;;;4.52;92.00
19789;BME280;10054;59.332;18.244;2023-03-01T10:03:12;101978.80;;;4.59;92.41
19789;BME280;10054;59.332;18.244;2023-03-01T10:11:33;101982.25;;;4.88;90.99
19789;BME280;10054;59.332;18.244;2023-03-01T10:14:15;101971.66;;;4.96;89.50
19789;BME280;10054;59.332;18.244;2023-03-01T10:17:39;101966.78;;;5.00;89.27
19789;BME280;10054;59.332;18.244;2023-03-01T10:19:34;101973.22;;;5.06;89.39
19789;BME280;10054;59.332;18.244;2023-03-01T10:24:39;101961.72;;;5.15;89.18
19789;BME280;10054;59.332;18.244;2023-03-01T10:27:22;101964.16;;;5.22;89.16
19789;BME280;10054;59.332;18.244;2023-03-01T10:30:13;101965.39;;;5.27;87.79
19789;BME280;10054;59.332;18.244;2023-03-01T10:32:40;101957.03;;;5.31;88.11
19789;BME280;10054;59.332;18.244;2023-03-01T10:35:27;101959.44;;;5.41;88.19
19789;BME280;10054;59.332;18.244;2023-03-01T10:38:12;101954.56;;;5.45;87.09
19789;BME280;10054;59.332;18.244;2023-03-01T10:40:49;101959.64;;;5.53;87.77
19789;BME280;10054;59.332;18.244;2023-03-01T10:43:10;101952.95;;;5.60;87.63
19789;BME280;10054;59.332;18.244;2023-03-01T10:45:38;101951.98;;;5.65;87.03
19789;BME280;10054;59.332;18.244;2023-03-01T10:48:20;101951.83;;;5.72;86.65
19789;BME280;10054;59.332;18.244;2023-03-01T10:50:47;101952.08;;;5.81;86.00
19789;BME280;10054;59.332;18.244;2023-03-01T10:53:38;101951.56;;;5.84;84.94
19789;BME280;10054;59.332;18.244;2023-03-01T10:56:12;101948.88;;;5.87;84.66
19789;BME280;10054;59.332;18.244;2023-03-01T10:58:59;101943.58;;;5.92;83.71
19789;BME280;10054;59.332;18.244;2023-03-01T11:01:30;101938.62;;;5.98;83.72
19789;BME280;10054;59.332;18.244;2023-03-01T11:06:38;101941.17;;;6.01;83.05
19789;BME280;10054;59.332;18.244;2023-03-01T11:09:19;101938.17;;;5.98;83.30
19789;BME280;10054;59.332;18.244;2023-03-01T11:11:56;101932.45;;;6.00;84.14
19789;BME280;10054;59.332;18.244;2023-03-01T11:14:32;101939.89;;;5.99;83.08
19789;BME280;10054;59.332;18.244;2023-03-01T11:20:25;101932.45;;;6.00;84.23
19789;BME280;10054;59.332;18.244;2023-03-01T11:22:33;101935.48;;;6.01;83.22
19789;BME280;10054;59.332;18.244;2023-03-01T11:25:04;101931.20;;;5.97;82.95
19789;BME280;10054;59.332;18.244;2023-03-01T11:27:36;101933.80;;;5.99;83.98
19789;BME280;10054;59.332;18.244;2023-03-01T11:30:31;101935.97;;;5.99;83.90
19789;BME280;10054;59.332;18.244;2023-03-01T11:38:30;101928.00;;;6.04;83.46
19789;BME280;10054;59.332;18.244;2023-03-01T11:41:08;101924.97;;;6.03;83.42
19789;BME280;10054;59.332;18.244;2023-03-01T11:43:55;101926.20;;;6.06;83.72
19789;BME280;10054;59.332;18.244;2023-03-01T11:54:59;101915.41;;;6.19;81.41
19789;BME280;10054;59.332;18.244;2023-03-01T11:57:43;101911.03;;;6.20;80.21
19789;BME280;10054;59.332;18.244;2023-03-01T12:14:42;101905.34;;;6.38;80.74
19789;BME280;10054;59.332;18.244;2023-03-01T12:20:02;101890.94;;;6.38;80.06
19789;BME280;10054;59.332;18.244;2023-03-01T12:22:40;101891.75;;;6.40;80.45
19789;BME280;10054;59.332;18.244;2023-03-01T12:28:04;101880.41;;;6.40;79.52
19789;BME280;10054;59.332;18.244;2023-03-01T12:30:46;101875.50;;;6.44;80.69
19789;BME280;10054;59.332;18.244;2023-03-01T12:33:29;101872.80;;;6.47;80.29
19789;BME280;10054;59.332;18.244;2023-03-01T12:38:50;101870.02;;;6.53;80.02
19789;BME280;10054;59.332;18.244;2023-03-01T12:44:22;101868.67;;;6.54;79.25
19789;BME280;10054;59.332;18.244;2023-03-01T12:47:00;101870.32;;;6.58;79.53
19789;BME280;10054;59.332;18.244;2023-03-01T12:49:34;101870.16;;;6.65;79.28
19789;BME280;10054;59.332;18.244;2023-03-01T12:54:40;101852.84;;;6.74;78.59
19789;BME280;10054;59.332;18.244;2023-03-01T12:57:18;101849.77;;;6.74;78.52
19789;BME280;10054;59.332;18.244;2023-03-01T13:00:17;101843.58;;;6.77;78.26
19789;BME280;10054;59.332;18.244;2023-03-01T13:03:15;101839.11;;;6.80;78.04
19789;BME280;10054;59.332;18.244;2023-03-01T13:05:56;101836.77;;;6.86;77.74
19789;BME280;10054;59.332;18.244;2023-03-01T13:08:46;101834.52;;;6.88;77.48
19789;BME280;10054;59.332;18.244;2023-03-01T13:11:19;101839.76;;;6.88;77.79
19789;BME280;10054;59.332;18.244;2023-03-01T13:13:49;101838.04;;;6.87;77.59
19789;BME280;10054;59.332;18.244;2023-03-01T13:16:39;101837.59;;;6.88;77.58
19789;BME280;10054;59.332;18.244;2023-03-01T13:19:18;101843.69;;;6.88;77.47
19789;BME280;10054;59.332;18.244;2023-03-01T13:21:48;101834.52;;;6.88;78.05
19789;BME280;10054;59.332;18.244;2023-03-01T13:24:38;101827.14;;;6.86;77.85
19789;BME280;10054;59.332;18.244;2023-03-01T13:29:58;101827.18;;;6.85;78.04
19789;BME280;10054;59.332;18.244;2023-03-01T13:32:37;101828.90;;;6.86;77.09
19789;BME280;10054;59.332;18.244;2023-03-01T13:37:48;101821.80;;;6.89;76.99
19789;BME280;10054;59.332;18.244;2023-03-01T13:42:54;101808.60;;;6.92;77.30
19789;BME280;10054;59.332;18.244;2023-03-01T13:48:03;101811.23;;;6.92;76.92
19789;BME280;10054;59.332;18.244;2023-03-01T13:50:35;101805.03;;;6.95;76.97
19789;BME280;10054;59.332;18.244;2023-03-01T13:53:05;101808.06;;;6.96;76.25
19789;BME280;10054;59.332;18.244;2023-03-01T13:55:44;101813.27;;;6.98;76.93
19789;BME280;10054;59.332;18.244;2023-03-01T14:00:58;101798.75;;;7.01;77.24
19789;BME280;10054;59.332;18.244;2023-03-01T14:03:28;101797.94;;;6.99;76.86
19789;BME280;10054;59.332;18.244;2023-03-01T14:06:05;101789.61;;;6.99;77.06
19789;BME280;10054;59.332;18.244;2023-03-01T14:08:37;101796.63;;;6.99;76.89
19789;BME280;10054;59.332;18.244;2023-03-01T14:16:50;101784.64;;;7.05;77.08
19789;BME280;10054;59.332;18.244;2023-03-01T14:19:21;101783.87;;;7.01;76.96
19789;BME280;10054;59.332;18.244;2023-03-01T14:21:59;101790.42;;;7.01;77.18
19789;BME280;10054;59.332;18.244;2023-03-01T14:24:31;101783.83;;;7.03;76.88
19789;BME280;10054;59.332;18.244;2023-03-01T14:27:04;101787.31;;;7.03;76.54
19789;BME280;10054;59.332;18.244;2023-03-01T14:29:37;101783.95;;;6.98;76.73
19789;BME280;10054;59.332;18.244;2023-03-01T14:32:21;101775.31;;;6.95;76.72
19789;BME280;10054;59.332;18.244;2023-03-01T14:34:51;101789.55;;;6.86;76.97
19789;BME280;10054;59.332;18.244;2023-03-01T14:37:25;101787.11;;;6.80;77.56